createdAt,value
2023-10-14T00:02:15.265Z,23.50
2023-10-14T00:04:46.394Z,23.50
2023-10-14T00:07:19.062Z,23.50
2023-10-14T00:09:51.704Z,23.40
2023-10-14T00:12:22.805Z,23.30
2023-10-14T00:14:54.997Z,23.30
2023-10-14T00:17:34.115Z,23.30
2023-10-14T00:20:06.183Z,23.30
2023-10-14T00:22:40.958Z,23.30
2023-10-14T00:25:20.655Z,23.30
2023-10-14T00:27:52.178Z,23.20
2023-10-14T00:30:28.046Z,23.20
2023-10-14T00:32:59.118Z,23.20
2023-10-14T00:35:30.169Z,23.20
2023-10-14T00:38:09.574Z,23.20
2023-10-14T00:40:41.228Z,22.90
2023-10-14T00:43:12.501Z,23.10
2023-10-14T00:45:46.426Z,23.10
2023-10-14T00:48:27.938Z,23.20
2023-10-14T00:51:01.090Z,23.10
2023-10-14T00:53:32.864Z,23.20
2023-10-14T00:56:04.583Z,23.10
2023-10-14T00:58:42.135Z,23.10
2023-10-14T01:01:13.549Z,23.10
2023-10-14T01:03:44.851Z,23.10
2023-10-14T01:06:24.006Z,23.10
2023-10-14T01:08:55.144Z,23.00
2023-10-14T01:11:26.276Z,23.00
2023-10-14T01:14:06.708Z,22.90
2023-10-14T01:16:38.601Z,22.80
2023-10-14T01:19:12.813Z,22.70
2023-10-14T01:21:45.165Z,22.60
2023-10-14T01:24:19.022Z,22.50
2023-10-14T01:27:06.387Z,22.40
2023-10-14T01:29:40.894Z,22.40
2023-10-14T01:32:38.993Z,22.30
2023-10-14T01:35:32.892Z,22.20
2023-10-14T01:38:05.028Z,22.00
2023-10-14T01:40:35.939Z,22.00
2023-10-14T01:43:07.598Z,21.90
2023-10-14T01:45:49.516Z,21.90
2023-10-14T01:48:22.728Z,21.90
2023-10-14T01:50:59.344Z,21.80
2023-10-14T01:53:33.685Z,21.80
2023-10-14T01:56:07.424Z,21.80
2023-10-14T01:58:38.457Z,21.80
2023-10-14T02:01:10.444Z,21.70
2023-10-14T02:03:48.408Z,21.70
2023-10-14T02:06:27.814Z,21.60
2023-10-14T02:08:59.656Z,21.60
2023-10-14T02:11:36.484Z,21.50
2023-10-14T02:14:10.340Z,21.40
2023-10-14T02:16:45.870Z,21.30
2023-10-14T02:19:22.908Z,21.30
2023-10-14T02:22:03.442Z,21.30
2023-10-14T02:24:34.532Z,21.30
2023-10-14T02:27:13.217Z,21.20
2023-10-14T02:29:48.172Z,21.30
2023-10-14T02:32:21.587Z,21.30
2023-10-14T02:34:52.681Z,21.30
2023-10-14T02:37:23.682Z,21.30
2023-10-14T02:39:54.692Z,21.20
2023-10-14T02:42:26.612Z,21.20
2023-10-14T02:45:00.858Z,21.30
2023-10-14T02:47:38.602Z,21.30
2023-10-14T02:50:12.546Z,21.30
2023-10-14T02:52:50.307Z,21.40
2023-10-14T02:55:26.616Z,21.40
2023-10-14T02:57:57.665Z,21.30
2023-10-14T03:00:32.274Z,21.30
2023-10-14T03:03:04.364Z,21.30
2023-10-14T03:05:53.671Z,21.40
2023-10-14T03:08:24.585Z,21.40
2023-10-14T03:11:00.868Z,21.40
2023-10-14T03:13:34.180Z,21.30
2023-10-14T03:16:05.964Z,21.40
2023-10-14T03:18:39.890Z,21.40
2023-10-14T03:21:22.779Z,21.40
2023-10-14T03:23:58.139Z,21.40
2023-10-14T03:26:33.538Z,21.40
2023-10-14T03:29:13.595Z,21.50
2023-10-14T03:31:46.341Z,21.40
2023-10-14T03:34:18.901Z,21.50
2023-10-14T03:36:51.863Z,21.50
2023-10-14T03:39:38.965Z,21.50
2023-10-14T03:42:12.709Z,21.50
2023-10-14T03:44:43.682Z,21.60
2023-10-14T03:47:17.858Z,21.50
2023-10-14T03:49:57.341Z,21.50
2023-10-14T03:52:28.614Z,21.50
2023-10-14T03:54:59.742Z,21.50
2023-10-14T03:57:38.717Z,21.50
2023-10-14T04:00:14.045Z,21.40
2023-10-14T04:02:45.190Z,21.50
2023-10-14T04:05:20.170Z,21.50
2023-10-14T04:07:51.093Z,21.50
2023-10-14T04:10:24.806Z,21.60
2023-10-14T04:12:55.764Z,21.60
2023-10-14T04:15:29.311Z,21.40
2023-10-14T04:18:01.466Z,21.50
2023-10-14T04:20:34.553Z,21.50
2023-10-14T04:23:07.053Z,21.50
2023-10-14T04:25:43.763Z,21.50
2023-10-14T04:28:14.838Z,21.50
2023-10-14T04:30:46.130Z,21.50
2023-10-14T04:33:17.285Z,21.50
2023-10-14T04:36:11.079Z,21.40
2023-10-14T04:38:44.534Z,21.10
2023-10-14T04:41:16.009Z,20.60
2023-10-14T04:43:49.608Z,19.90
2023-10-14T04:46:34.293Z,19.30
2023-10-14T04:49:08.749Z,18.70
2023-10-14T04:51:47.251Z,18.40
2023-10-14T04:54:22.090Z,18.20
2023-10-14T04:56:59.067Z,17.90
2023-10-14T04:59:31.736Z,17.80
2023-10-14T05:02:02.723Z,17.60
2023-10-14T05:04:38.575Z,17.60
2023-10-14T05:07:12.545Z,17.60
2023-10-14T05:09:50.767Z,17.50
2023-10-14T05:12:25.796Z,17.40
2023-10-14T05:14:56.891Z,17.40
2023-10-14T05:17:28.801Z,17.50
2023-10-14T05:20:00.818Z,17.50
2023-10-14T05:22:42.426Z,17.50
2023-10-14T05:25:24.973Z,17.50
2023-10-14T05:27:56.840Z,17.50
2023-10-14T05:30:34.994Z,17.50
2023-10-14T05:33:09.187Z,17.50
2023-10-14T05:35:42.088Z,17.60
2023-10-14T05:38:15.366Z,17.70
2023-10-14T05:40:46.316Z,17.70
2023-10-14T05:43:17.249Z,17.80
2023-10-14T05:45:48.243Z,18.10
2023-10-14T05:48:19.630Z,18.30
2023-10-14T05:50:51.092Z,18.30
2023-10-14T05:53:22.112Z,18.30
2023-10-14T05:56:10.974Z,18.50
2023-10-14T05:58:43.358Z,18.40
2023-10-14T06:01:17.462Z,18.40
2023-10-14T06:03:48.797Z,18.40
2023-10-14T06:06:23.312Z,18.50
2023-10-14T06:08:54.518Z,18.50
2023-10-14T06:11:26.610Z,18.40
2023-10-14T06:13:58.330Z,18.40
2023-10-14T06:16:30.667Z,18.40
2023-10-14T06:19:01.737Z,18.40
2023-10-14T06:21:34.605Z,18.50
2023-10-14T06:24:11.846Z,18.40
2023-10-14T06:26:42.852Z,18.40
2023-10-14T06:29:14.599Z,18.50
2023-10-14T06:31:46.697Z,18.50
2023-10-14T06:34:17.681Z,18.60
2023-10-14T06:36:49.393Z,18.60
2023-10-14T06:39:27.572Z,18.60
2023-10-14T06:41:59.756Z,18.70
2023-10-14T06:44:30.837Z,18.60
2023-10-14T06:47:02.170Z,18.60
2023-10-14T06:49:38.331Z,18.70
2023-10-14T06:52:13.521Z,18.70
2023-10-14T06:54:44.694Z,18.70
2023-10-14T06:57:15.698Z,18.80
2023-10-14T06:59:47.038Z,18.70
2023-10-14T07:02:19.528Z,18.80
2023-10-14T07:04:51.571Z,18.80
2023-10-14T07:07:22.866Z,18.80
2023-10-14T07:09:53.981Z,18.80
2023-10-14T07:12:24.935Z,18.80
2023-10-14T07:14:55.833Z,18.90
2023-10-14T07:17:27.113Z,19.00
2023-10-14T07:19:58.219Z,19.10
2023-10-14T07:22:33.512Z,19.10
2023-10-14T07:25:06.555Z,19.20
2023-10-14T07:27:39.225Z,19.30
2023-10-14T07:30:16.333Z,19.30
2023-10-14T07:32:49.329Z,19.40
2023-10-14T07:35:20.353Z,19.40
2023-10-14T07:37:54.814Z,19.50
2023-10-14T07:40:28.362Z,19.50
2023-10-14T07:43:08.710Z,19.50
2023-10-14T07:45:47.678Z,19.50
2023-10-14T07:48:21.171Z,19.60
2023-10-14T07:50:52.184Z,19.60
2023-10-14T07:53:24.169Z,19.60
2023-10-14T07:55:57.729Z,19.60
2023-10-14T07:58:30.021Z,19.60
2023-10-14T08:01:07.652Z,19.60
2023-10-14T08:03:39.322Z,19.60
2023-10-14T08:06:11.802Z,19.70
2023-10-14T08:08:48.925Z,19.70
2023-10-14T08:11:19.908Z,19.70
2023-10-14T08:13:50.890Z,19.80
2023-10-14T08:16:23.170Z,19.80
2023-10-14T08:18:55.216Z,19.80
2023-10-14T08:21:26.397Z,19.90
2023-10-14T08:23:59.473Z,19.90
2023-10-14T08:26:31.094Z,20.00
2023-10-14T08:29:03.548Z,20.00
2023-10-14T08:31:34.700Z,20.00
2023-10-14T08:34:08.593Z,19.90
2023-10-14T08:36:44.358Z,20.00
2023-10-14T08:39:15.561Z,20.00
2023-10-14T08:41:49.577Z,20.00
2023-10-14T08:44:27.172Z,20.10
2023-10-14T08:46:58.773Z,20.20
2023-10-14T08:49:33.670Z,20.30
2023-10-14T08:52:10.657Z,20.40
2023-10-14T08:54:43.419Z,20.40
2023-10-14T08:57:14.861Z,20.50
2023-10-14T08:59:46.824Z,20.50
2023-10-14T09:02:18.329Z,20.60
2023-10-14T09:04:49.318Z,20.60
2023-10-14T09:07:23.889Z,20.70
2023-10-14T09:09:55.014Z,20.70
2023-10-14T09:12:27.016Z,20.60
2023-10-14T09:14:59.200Z,20.00
2023-10-14T09:17:30.632Z,19.50
2023-10-14T09:20:01.627Z,18.70
2023-10-14T09:22:35.338Z,18.40
2023-10-14T09:25:07.738Z,18.30
2023-10-14T09:27:38.701Z,18.10
2023-10-14T09:30:11.970Z,17.60
2023-10-14T09:32:42.942Z,17.10
2023-10-14T09:35:14.092Z,16.80
2023-10-14T09:37:45.029Z,16.60
2023-10-14T09:40:16.218Z,16.40
2023-10-14T09:42:49.369Z,16.30
2023-10-14T09:45:23.779Z,16.20
2023-10-14T09:47:59.135Z,16.10
2023-10-14T09:50:31.237Z,16.10
2023-10-14T09:53:02.589Z,16.10
2023-10-14T09:55:34.317Z,16.20
2023-10-14T09:58:05.997Z,16.20
2023-10-14T10:00:37.813Z,16.20
2023-10-14T10:03:12.035Z,16.40
2023-10-14T10:06:12.070Z,16.40
2023-10-14T10:09:05.272Z,16.40
2023-10-14T10:11:38.212Z,16.40
2023-10-14T10:14:14.192Z,16.40
2023-10-14T10:16:51.002Z,16.50
2023-10-14T10:20:18.223Z,16.60
2023-10-14T10:22:57.242Z,16.70
2023-10-14T10:25:37.280Z,16.60
2023-10-14T10:28:29.508Z,16.50
2023-10-14T10:31:13.483Z,16.50
2023-10-14T10:33:46.669Z,16.50
2023-10-14T10:36:29.969Z,16.60
2023-10-14T10:39:17.403Z,16.80
2023-10-14T10:41:55.104Z,16.80
2023-10-14T10:44:26.985Z,16.80
2023-10-14T10:47:00.484Z,16.90
2023-10-14T10:49:49.904Z,16.90
2023-10-14T10:52:22.487Z,16.80
2023-10-14T10:54:54.513Z,16.60
2023-10-14T10:57:26.482Z,16.60
2023-10-14T10:59:57.542Z,16.70
2023-10-14T11:02:30.865Z,16.70
2023-10-14T11:05:04.272Z,16.70
2023-10-14T11:07:35.242Z,16.70
2023-10-14T11:10:06.817Z,16.60
2023-10-14T11:12:38.421Z,16.50
2023-10-14T11:15:21.166Z,16.50
2023-10-14T11:17:54.264Z,16.30
2023-10-14T11:20:33.136Z,16.20
2023-10-14T11:23:11.851Z,16.00
2023-10-14T11:25:48.004Z,16.00
2023-10-14T11:28:19.040Z,16.00
2023-10-14T11:30:50.121Z,15.90
2023-10-14T11:33:21.121Z,15.90
2023-10-14T11:35:52.334Z,15.70
2023-10-14T11:38:27.342Z,15.70
2023-10-14T11:41:03.880Z,15.50
2023-10-14T11:43:34.943Z,15.70
2023-10-14T11:46:06.016Z,15.80
2023-10-14T11:48:39.464Z,15.70
2023-10-14T11:51:13.078Z,15.60
2023-10-14T11:53:45.838Z,15.50
2023-10-14T11:56:16.771Z,15.70
2023-10-14T11:58:50.725Z,15.70
2023-10-14T12:01:27.541Z,15.70
2023-10-14T12:04:00.826Z,15.70
2023-10-14T12:06:35.713Z,15.60
2023-10-14T12:09:07.155Z,15.60
2023-10-14T12:11:44.168Z,15.50
2023-10-14T12:14:17.983Z,15.30
2023-10-14T12:16:51.915Z,15.30
2023-10-14T12:19:23.793Z,15.30
2023-10-14T12:21:55.710Z,15.30
2023-10-14T12:24:26.737Z,15.30
2023-10-14T12:26:57.675Z,15.30
2023-10-14T12:29:30.871Z,15.20
2023-10-14T12:32:17.390Z,15.30
2023-10-14T12:34:50.329Z,15.10
2023-10-14T12:37:22.533Z,15.40
2023-10-14T12:40:05.920Z,15.60
2023-10-14T12:42:50.252Z,15.50
2023-10-14T12:45:24.621Z,15.40
2023-10-14T12:48:01.655Z,15.30
2023-10-14T12:50:34.226Z,15.30
2023-10-14T12:53:07.159Z,15.30
2023-10-14T12:55:40.388Z,15.30
2023-10-14T12:58:13.590Z,15.30
2023-10-14T13:00:44.733Z,15.30
2023-10-14T13:03:18.226Z,15.30
2023-10-14T13:05:49.923Z,15.30
2023-10-14T13:08:20.883Z,15.30
2023-10-14T13:10:51.807Z,15.20
2023-10-14T13:13:23.137Z,15.20
2023-10-14T13:15:55.304Z,15.00
2023-10-14T13:18:26.559Z,15.00
2023-10-14T13:20:59.715Z,15.00
2023-10-14T13:23:30.696Z,15.00
2023-10-14T13:26:01.654Z,15.00
2023-10-14T13:28:33.840Z,15.00
2023-10-14T13:31:06.008Z,15.00
2023-10-14T13:33:37.894Z,14.80
2023-10-14T13:36:12.044Z,14.80
2023-10-14T13:38:45.184Z,14.70
2023-10-14T13:41:18.897Z,14.50
2023-10-14T13:43:51.242Z,14.40
2023-10-14T13:46:22.362Z,14.30
2023-10-14T13:48:58.226Z,14.30
2023-10-14T13:51:29.499Z,14.30
2023-10-14T13:54:00.444Z,14.40
2023-10-14T13:56:32.429Z,14.30
2023-10-14T13:59:06.262Z,14.40
2023-10-14T14:01:38.285Z,14.40
2023-10-14T14:04:11.350Z,14.60
2023-10-14T14:06:43.483Z,14.70
2023-10-14T14:09:16.404Z,14.70
2023-10-14T14:11:47.507Z,14.60
2023-10-14T14:14:18.824Z,14.50
2023-10-14T14:16:53.273Z,14.50
2023-10-14T14:19:24.788Z,14.50
2023-10-14T14:21:55.953Z,14.40
2023-10-14T14:24:26.952Z,14.40
2023-10-14T14:26:57.866Z,14.30
2023-10-14T14:29:28.830Z,14.40
2023-10-14T14:31:59.937Z,14.40
2023-10-14T14:34:32.293Z,14.30
2023-10-14T14:37:04.816Z,14.20
2023-10-14T14:39:41.002Z,14.30
2023-10-14T14:42:12.093Z,14.20
2023-10-14T14:44:43.868Z,14.30
2023-10-14T14:47:15.958Z,14.40
2023-10-14T14:49:47.132Z,14.40
2023-10-14T14:52:20.589Z,14.40
2023-10-14T14:54:52.008Z,14.40
2023-10-14T14:57:22.918Z,14.50
2023-10-14T14:59:57.214Z,14.50
2023-10-14T15:02:28.412Z,14.50
2023-10-14T15:04:59.405Z,14.60
2023-10-14T15:07:30.423Z,14.70
2023-10-14T15:10:06.148Z,14.90
2023-10-14T15:12:37.288Z,15.00
2023-10-14T15:15:11.155Z,15.00
2023-10-14T15:17:43.481Z,15.00
2023-10-14T15:20:16.939Z,15.00
2023-10-14T15:22:50.920Z,15.00
2023-10-14T15:25:22.454Z,15.00
2023-10-14T15:27:55.884Z,15.00
2023-10-14T15:30:27.258Z,14.90
2023-10-14T15:32:59.104Z,14.90
2023-10-14T15:35:30.456Z,14.90
2023-10-14T15:38:06.007Z,15.00
2023-10-14T15:40:37.354Z,15.00
2023-10-14T15:43:08.589Z,15.20
2023-10-14T15:45:39.628Z,15.30
2023-10-14T15:48:10.904Z,15.40
2023-10-14T15:50:45.772Z,15.30
2023-10-14T15:53:17.448Z,15.30
2023-10-14T15:55:48.473Z,15.30
2023-10-14T15:58:30.734Z,15.30
2023-10-14T16:01:11.383Z,15.20
2023-10-14T16:03:43.836Z,15.20
2023-10-14T16:06:14.920Z,15.20
2023-10-14T16:08:45.961Z,15.30
2023-10-14T16:11:17.060Z,15.20
2023-10-14T16:13:48.100Z,15.20
2023-10-14T16:16:19.128Z,15.20
2023-10-14T16:18:50.758Z,15.10
2023-10-14T16:21:24.164Z,15.00
2023-10-14T16:23:55.171Z,14.80
2023-10-14T16:26:26.101Z,14.60
2023-10-14T16:29:04.305Z,14.50
2023-10-14T16:31:36.302Z,14.40
2023-10-14T16:34:07.493Z,14.30
2023-10-14T16:36:38.431Z,14.20
2023-10-14T16:39:10.631Z,14.20
2023-10-14T16:41:43.069Z,14.20
2023-10-14T16:44:13.967Z,14.20
2023-10-14T16:46:47.104Z,14.10
2023-10-14T16:49:21.043Z,14.10
2023-10-14T16:51:55.148Z,13.90
2023-10-14T16:54:28.814Z,13.90
2023-10-14T16:56:59.747Z,13.80
2023-10-14T16:59:32.723Z,13.90
2023-10-14T17:02:03.911Z,13.80
2023-10-14T17:04:35.166Z,13.80
2023-10-14T17:07:06.870Z,13.70
2023-10-14T17:09:37.993Z,13.70
2023-10-14T17:12:08.947Z,13.70
2023-10-14T17:14:42.650Z,13.70
2023-10-14T17:17:16.766Z,13.70
2023-10-14T17:19:47.853Z,13.70
2023-10-14T17:22:18.824Z,13.70
2023-10-14T17:24:53.034Z,13.70
2023-10-14T17:27:24.081Z,13.70
2023-10-14T17:29:55.010Z,13.70
2023-10-14T17:32:29.228Z,13.60
2023-10-14T17:35:06.577Z,13.50
2023-10-14T17:37:41.291Z,13.50
2023-10-14T17:40:17.891Z,13.50
2023-10-14T17:42:56.975Z,13.60
2023-10-14T17:45:28.293Z,13.50
2023-10-14T17:48:02.855Z,13.40
2023-10-14T17:50:39.411Z,13.50
2023-10-14T17:53:14.060Z,13.40
2023-10-14T17:55:46.315Z,13.40
2023-10-14T17:58:19.443Z,13.40
2023-10-14T18:00:53.289Z,13.50
2023-10-14T18:03:24.294Z,13.50
2023-10-14T18:05:55.310Z,13.40
2023-10-14T18:08:26.248Z,13.40
2023-10-14T18:10:58.646Z,13.40
2023-10-14T18:13:29.593Z,13.30
2023-10-14T18:16:01.907Z,13.30
2023-10-14T18:18:33.550Z,13.40
2023-10-14T18:21:18.060Z,13.40
2023-10-14T18:23:50.447Z,13.30
2023-10-14T18:26:21.377Z,13.40
2023-10-14T18:28:52.371Z,13.40
2023-10-14T18:31:24.581Z,13.30
2023-10-14T18:33:58.261Z,13.30
2023-10-14T18:36:29.659Z,13.30
2023-10-14T18:39:00.610Z,13.20
2023-10-14T18:41:31.569Z,13.20
2023-10-14T18:44:02.623Z,13.20
2023-10-14T18:46:34.831Z,13.10
2023-10-14T18:49:05.869Z,13.20
2023-10-14T18:51:36.803Z,13.10
2023-10-14T18:54:07.851Z,13.20
2023-10-14T18:56:39.819Z,13.10
2023-10-14T18:59:14.640Z,13.10
2023-10-14T19:01:45.623Z,13.10
2023-10-14T19:04:16.840Z,13.10
2023-10-14T19:06:48.935Z,13.10
2023-10-14T19:09:24.879Z,13.10
2023-10-14T19:11:57.279Z,13.10
2023-10-14T19:14:47.620Z,13.00
2023-10-14T19:17:20.380Z,13.10
2023-10-14T19:19:51.436Z,13.00
2023-10-14T19:22:22.434Z,13.00
2023-10-14T19:24:53.825Z,13.00
2023-10-14T19:27:31.400Z,12.90
2023-10-14T19:30:14.511Z,12.90
2023-10-14T19:32:45.491Z,12.90
2023-10-14T19:35:16.647Z,13.00
2023-10-14T19:37:48.693Z,12.90
2023-10-14T19:40:21.099Z,12.90
2023-10-14T19:42:55.245Z,13.00
2023-10-14T19:45:26.471Z,13.00
2023-10-14T19:47:58.045Z,12.90
2023-10-14T19:50:33.828Z,12.90
2023-10-14T19:53:04.994Z,12.90
2023-10-14T19:55:39.216Z,12.90
2023-10-14T19:58:10.882Z,12.80
2023-10-14T20:00:43.788Z,12.80
2023-10-14T20:03:15.621Z,12.80
2023-10-14T20:05:47.514Z,12.80
2023-10-14T20:08:21.085Z,12.80
2023-10-14T20:10:55.484Z,12.80
2023-10-14T20:13:27.564Z,12.80
2023-10-14T20:15:58.970Z,12.80
2023-10-14T20:18:30.056Z,12.80
2023-10-14T20:21:04.134Z,12.70
2023-10-14T20:23:35.832Z,12.70
2023-10-14T20:26:11.517Z,12.70
2023-10-14T20:28:45.613Z,12.60
2023-10-14T20:31:23.391Z,12.60
2023-10-14T20:33:54.720Z,12.60
2023-10-14T20:36:28.060Z,12.60
2023-10-14T20:38:58.996Z,12.60
2023-10-14T20:41:30.057Z,12.50
2023-10-14T20:44:07.518Z,12.50
2023-10-14T20:46:39.248Z,12.40
2023-10-14T20:49:11.823Z,12.40
2023-10-14T20:51:43.158Z,12.40
2023-10-14T20:54:14.111Z,12.40
2023-10-14T20:56:45.427Z,12.40
2023-10-14T20:59:17.611Z,12.40
2023-10-14T21:01:48.746Z,12.30
2023-10-14T21:04:21.644Z,12.20
2023-10-14T21:06:54.557Z,12.20
2023-10-14T21:09:25.616Z,12.20
2023-10-14T21:11:56.678Z,12.10
2023-10-14T21:14:28.771Z,12.10
2023-10-14T21:17:00.457Z,12.10
2023-10-14T21:19:31.519Z,12.10
2023-10-14T21:22:02.546Z,12.10
2023-10-14T21:24:33.495Z,12.10
2023-10-14T21:27:04.453Z,12.10
2023-10-14T21:29:38.878Z,12.00
2023-10-14T21:32:11.835Z,12.00
2023-10-14T21:34:43.665Z,12.00
2023-10-14T21:37:14.910Z,11.90
2023-10-14T21:39:45.873Z,11.90
2023-10-14T21:42:16.814Z,11.80
2023-10-14T21:44:48.116Z,11.80
2023-10-14T21:47:21.852Z,11.80
2023-10-14T21:49:52.819Z,11.80
2023-10-14T21:52:25.433Z,11.90
2023-10-14T21:54:56.424Z,11.80
2023-10-14T21:57:27.498Z,11.80
2023-10-14T21:59:58.471Z,11.80
2023-10-14T22:02:29.803Z,11.80
2023-10-14T22:05:04.386Z,11.70
2023-10-14T22:07:40.660Z,11.70
2023-10-14T22:10:15.558Z,11.60
2023-10-14T22:12:53.889Z,11.60
2023-10-14T22:15:28.782Z,11.60
2023-10-14T22:18:04.184Z,11.50
2023-10-14T22:20:35.878Z,11.40
2023-10-14T22:23:11.077Z,11.40
2023-10-14T22:25:46.570Z,11.50
2023-10-14T22:28:17.990Z,11.50
2023-10-14T22:30:49.147Z,11.40
2023-10-14T22:33:20.080Z,11.40
2023-10-14T22:35:50.983Z,11.40
2023-10-14T22:38:22.437Z,11.40
2023-10-14T22:40:54.781Z,11.40
2023-10-14T22:43:29.638Z,11.40
2023-10-14T22:46:00.712Z,11.20
2023-10-14T22:48:33.883Z,11.20
2023-10-14T22:51:05.246Z,11.30
2023-10-14T22:53:36.216Z,11.30
2023-10-14T22:56:07.223Z,11.30
2023-10-14T22:58:38.706Z,11.20
2023-10-14T23:01:12.006Z,11.20
2023-10-14T23:03:43.165Z,11.20
2023-10-14T23:06:22.827Z,11.20
2023-10-14T23:08:53.841Z,11.10
2023-10-14T23:11:24.851Z,11.00
2023-10-14T23:13:55.858Z,11.10
2023-10-14T23:16:27.034Z,11.10
2023-10-14T23:18:58.143Z,11.10
2023-10-14T23:21:29.063Z,11.10
2023-10-14T23:24:00.435Z,11.00
2023-10-14T23:26:31.665Z,10.90
2023-10-14T23:29:03.868Z,10.90
2023-10-14T23:31:34.813Z,10.90
2023-10-14T23:34:06.873Z,10.80
2023-10-14T23:36:37.775Z,10.70
2023-10-14T23:39:15.280Z,10.60
2023-10-14T23:41:46.878Z,10.50
2023-10-14T23:44:17.860Z,10.30
2023-10-14T23:46:49.116Z,10.20
2023-10-14T23:49:21.614Z,10.10
2023-10-14T23:51:52.543Z,10.00
2023-10-14T23:54:25.245Z,9.90
2023-10-14T23:56:56.955Z,9.80
2023-10-14T23:59:27.995Z,9.70
